Time;durP1;ratioP1;P1;durP2;ratioP2;P2;SDS_P1;SDS_P2;PMS_P1;PMS_P2;Temp;Humidity;BMP_temperature;BMP_pressure;BME280_temperature;BME280_humidity;BME280_pressure;Samples;Min_cycle;Max_cycle;Signal;HPM_P1;HPM_P2
2022/02/13 00:04:32;;;;;;;30.53;12.63;;;;;;;0.80;83.33;101539.17;713456;1174;114881;-74
2022/02/13 00:19:34;;;;;;;33.00;13.27;;;;;;;0.58;84.63;101509.65;716342;1174;114380;-74
2022/02/13 00:34:37;;;;;;;31.03;14.53;;;;;;;0.67;84.11;101504.23;713305;1174;115354;-74
2022/02/13 00:49:39;;;;;;;31.53;14.10;;;;;;;0.62;84.15;101467.35;712984;1174;115886;-75
2022/02/13 01:04:41;;;;;;;37.37;15.23;;;;;;;0.57;84.82;101449.41;713255;1174;115106;-75
2022/02/13 01:19:43;;;;;;;32.98;14.88;;;;;;;0.53;85.03;101446.95;712980;1174;115701;-74
2022/02/13 01:34:45;;;;;;;32.30;14.97;;;;;;;0.48;85.40;101416.09;713165;1174;114810;-75
2022/02/13 01:49:48;;;;;;;45.58;16.20;;;;;;;0.37;85.05;101406.08;713409;1167;115545;-75
2022/02/13 02:04:57;;;;;;;41.37;16.50;;;;;;;0.33;85.21;101374.33;713018;1174;115271;-74
2022/02/13 02:20:00;;;;;;;36.00;15.77;;;;;;;0.57;84.90;101345.25;713004;1174;116371;-73
2022/02/13 02:35:04;;;;;;;39.00;17.10;;;;;;;0.60;84.21;101322.77;713000;1174;115055;-74
2022/02/13 02:50:07;;;;;;;47.25;18.33;;;;;;;0.58;84.40;101316.83;712982;1174;115185;-74
2022/02/13 03:05:09;;;;;;;47.08;20.43;;;;;;;0.58;84.28;101313.38;712935;1174;114991;-74
2022/02/13 03:20:12;;;;;;;47.65;19.10;;;;;;;0.54;83.15;101293.70;713152;1173;114966;-75
2022/02/13 03:35:14;;;;;;;46.78;20.08;;;;;;;0.49;83.81;101276.61;713032;1173;115884;-74
2022/02/13 03:50:16;;;;;;;36.50;18.63;;;;;;;0.43;83.11;101247.55;713204;1174;115824;-73
2022/02/13 04:05:18;;;;;;;50.95;20.25;;;;;;;0.45;82.57;101218.22;712987;1174;115829;-74
2022/02/13 04:20:21;;;;;;;47.38;18.38;;;;;;;0.38;82.16;101196.05;713016;1174;115908;-73
2022/02/13 04:35:23;;;;;;;40.63;18.33;;;;;;;0.34;81.92;101186.71;712988;1174;114845;-75
2022/02/13 04:50:26;;;;;;;47.53;19.18;;;;;;;0.24;81.02;101167.23;713202;1174;114330;-75
2022/02/13 05:05:29;;;;;;;41.77;18.90;;;;;;;0.24;81.93;101162.07;713461;1174;115934;-75
2022/02/13 05:20:31;;;;;;;44.40;17.73;;;;;;;0.08;81.45;101152.23;713502;1174;114326;-76
2022/02/13 05:35:34;;;;;;;41.55;18.75;;;;;;;-0.06;81.83;101123.43;713051;1174;114912;-75
2022/02/13 05:50:37;;;;;;;48.73;21.80;;;;;;;0.00;81.83;101118.09;713204;1174;114583;-76
2022/02/13 06:05:39;;;;;;;40.38;18.58;;;;;;;-0.08;81.62;101112.30;713532;1174;115618;-75
2022/02/13 06:20:42;;;;;;;43.45;19.00;;;;;;;-0.02;81.70;101101.80;713883;1174;115171;-74
2022/02/13 06:35:45;;;;;;;37.68;18.58;;;;;;;0.02;82.06;101103.39;713655;1174;116059;-74
2022/02/13 06:50:47;;;;;;;44.95;19.38;;;;;;;0.35;82.60;101087.73;714186;1174;115357;-75
2022/02/13 07:05:49;;;;;;;37.20;17.73;;;;;;;1.06;82.42;101074.99;714122;1174;114339;-76
2022/02/13 07:20:52;;;;;;;41.98;18.85;;;;;;;1.36;81.91;101068.75;715329;1174;114985;-74
2022/02/13 07:35:54;;;;;;;43.13;23.53;;;;;;;1.94;80.70;101063.09;714878;1174;115748;-74
2022/02/13 07:50:57;;;;;;;155.68;58.45;;;;;;;2.73;80.52;101027.05;714738;1174;114087;-75
2022/02/13 08:06:00;;;;;;;44.07;18.40;;;;;;;3.11;78.20;101005.52;714500;1174;114764;-76
2022/02/13 08:21:07;;;;;;;39.30;19.33;;;;;;;2.87;77.58;100999.69;715459;1174;114232;-83
2022/02/13 08:36:09;;;;;;;41.93;20.03;;;;;;;3.74;78.10;100987.01;717019;1174;115442;-85
2022/02/13 08:51:12;;;;;;;33.80;16.75;;;;;;;5.03;77.66;100973.57;718219;1174;115715;-82
2022/02/13 09:06:14;;;;;;;27.83;14.30;;;;;;;5.45;74.53;100942.66;715281;1174;114192;-76
2022/02/13 09:21:16;;;;;;;35.03;15.93;;;;;;;6.04;71.59;100931.55;714485;1174;114962;-76
2022/02/13 09:36:19;;;;;;;30.35;15.13;;;;;;;6.69;71.49;100912.89;714718;1174;116036;-73
2022/02/13 09:51:22;;;;;;;32.17;15.63;;;;;;;7.20;69.97;100906.25;715242;1174;114026;-73
2022/02/13 10:06:25;;;;;;;36.63;16.03;;;;;;;7.00;68.05;100895.31;714846;1174;114215;-74
2022/02/13 10:21:49;;;;;;;31.37;15.67;;;;;;;7.25;66.19;100839.77;714771;1174;115654;-73
2022/02/13 10:36:52;;;;;;;36.83;16.83;;;;;;;7.52;63.70;100835.45;715325;1174;115387;-74
2022/02/13 10:51:54;;;;;;;61.60;30.37;;;;;;;8.29;64.35;100848.54;715760;1166;115400;-75
2022/02/13 11:06:57;;;;;;;24.37;12.90;;;;;;;8.15;63.46;100826.78;714385;1174;114519;-74
2022/02/13 11:22:03;;;;;;;25.55;12.73;;;;;;;8.87;63.70;100800.89;714806;1173;114191;-76
2022/02/13 11:37:12;;;;;;;24.75;13.73;;;;;;;9.56;61.51;100782.69;715262;1174;115226;-74
2022/02/13 11:52:27;;;;;;;32.70;16.53;;;;;;;9.54;60.61;100737.45;714406;1174;115001;-72
2022/02/13 12:07:54;;;;;;;29.70;13.37;;;;;;;10.01;61.37;100715.54;714618;1174;114327;-73
2022/02/13 12:23:06;;;;;;;18.20;10.70;;;;;;;9.29;58.46;100705.28;715101;1174;115698;-75
2022/02/13 12:38:09;;;;;;;18.50;11.48;;;;;;;9.51;57.59;100693.14;716012;1169;114292;-81
2022/02/13 12:53:14;;;;;;;23.00;12.25;;;;;;;10.55;56.96;100656.19;716703;1174;115436;-82
2022/02/13 13:08:20;;;;;;;21.80;12.25;;;;;;;10.49;56.57;100681.95;715705;1174;114225;-82
2022/02/13 13:23:23;;;;;;;24.80;10.85;;;;;;;10.34;55.28;100677.91;719120;1174;115534;-82
2022/02/13 13:38:33;;;;;;;20.17;10.90;;;;;;;14.78;48.65;100662.77;716477;1174;114845;-82
2022/02/13 13:53:36;;;;;;;28.15;13.00;;;;;;;16.66;48.06;100646.11;715274;1174;115780;-80
2022/02/13 14:08:38;;;;;;;20.00;11.17;;;;;;;17.78;45.73;100630.23;714284;1174;116418;-82
2022/02/13 14:23:47;;;;;;;17.20;10.15;;;;;;;17.17;45.32;100616.72;714935;1174;115073;-81
2022/02/13 14:38:50;;;;;;;19.43;10.30;;;;;;;16.01;45.11;100622.06;714643;1174;116037;-81
2022/02/13 14:53:54;;;;;;;23.93;13.38;;;;;;;10.95;48.58;100597.73;714367;1174;114941;-81
2022/02/13 15:08:56;;;;;;;72.63;32.55;;;;;;;9.41;53.01;100564.73;715293;1174;114500;-80
2022/02/13 15:23:58;;;;;;;25.00;12.87;;;;;;;10.48;53.34;100543.89;714774;1174;115383;-79
2022/02/13 15:39:02;;;;;;;33.50;17.58;;;;;;;7.78;54.13;100515.06;715240;1174;115770;-81
2022/02/13 15:54:04;;;;;;;68.58;23.68;;;;;;;6.39;57.50;100522.91;714719;1167;114769;-80
2022/02/13 16:09:06;;;;;;;39.83;18.67;;;;;;;5.70;60.01;100525.62;715046;1174;114204;-74
2022/02/13 16:24:08;;;;;;;31.70;15.95;;;;;;;5.40;61.63;100505.80;718300;1174;114173;-90
2022/02/13 16:39:13;;;;;;;27.93;14.00;;;;;;;5.14;63.67;100500.44;723703;1174;114040;-75
2022/02/13 16:54:16;;;;;;;25.20;11.95;;;;;;;4.96;63.91;100480.77;714754;1174;114545;-80
2022/02/13 17:09:18;;;;;;;33.00;15.20;;;;;;;4.75;65.12;100478.56;714548;1174;114964;-78
2022/02/13 17:24:20;;;;;;;88.97;28.73;;;;;;;4.57;67.16;100470.11;715282;1174;114582;-77
2022/02/13 17:39:22;;;;;;;51.90;19.23;;;;;;;4.43;67.64;100457.10;714481;1174;115784;-77
2022/02/13 17:54:25;;;;;;;34.90;15.13;;;;;;;4.28;68.14;100430.28;715721;1174;114546;-78
2022/02/13 18:09:27;;;;;;;27.00;11.83;;;;;;;4.20;68.61;100422.09;715157;1174;115167;-77
2022/02/13 18:24:35;;;;;;;35.28;15.78;;;;;;;4.09;69.55;100408.01;714819;1174;114100;-76
2022/02/13 18:39:40;;;;;;;43.23;17.00;;;;;;;3.98;71.54;100403.42;714570;1174;114174;-77
2022/02/13 18:54:44;;;;;;;52.97;19.40;;;;;;;3.96;71.81;100375.91;714970;1174;115723;-79
2022/02/13 19:09:47;;;;;;;41.50;17.27;;;;;;;3.90;72.02;100373.66;714608;1174;114885;-78
2022/02/13 19:24:52;;;;;;;37.28;15.48;;;;;;;3.82;72.06;100369.74;714747;1174;115482;-78
2022/02/13 19:39:54;;;;;;;28.13;13.60;;;;;;;3.80;73.12;100356.04;714851;1174;115485;-77
2022/02/13 19:54:58;;;;;;;31.53;13.67;;;;;;;3.98;72.61;100325.55;714822;1174;114965;-78
2022/02/13 20:10:04;;;;;;;45.03;20.03;;;;;;;3.86;73.51;100318.50;714141;1174;115241;-81
2022/02/13 20:25:08;;;;;;;30.50;13.57;;;;;;;3.90;72.95;100319.16;714622;1174;115720;-79
2022/02/13 20:40:13;;;;;;;19.80;9.03;;;;;;;3.96;73.15;100334.38;716951;1173;115691;-81
2022/02/13 20:55:16;;;;;;;22.00;11.00;;;;;;;3.98;72.63;100337.70;718888;1174;114027;-79
2022/02/13 21:10:20;;;;;;;24.95;11.65;;;;;;;3.83;72.05;100345.47;714139;1173;115668;-82
2022/02/13 21:25:22;;;;;;;32.18;13.43;;;;;;;3.80;72.15;100345.66;714240;1174;115059;-80
2022/02/13 21:40:28;;;;;;;32.63;13.47;;;;;;;3.57;72.40;100339.20;713758;1174;115284;-80
2022/02/13 21:55:32;;;;;;;31.83;13.15;;;;;;;3.44;72.62;100335.65;713773;1174;114652;-80
2022/02/13 22:10:35;;;;;;;30.68;13.30;;;;;;;3.35;73.12;100316.25;714049;1174;115342;-80
2022/02/13 22:25:37;;;;;;;35.63;14.05;;;;;;;3.25;74.55;100296.98;714002;1174;114666;-80
2022/02/13 22:40:39;;;;;;;27.43;11.50;;;;;;;3.13;74.31;100294.16;713572;1174;115103;-80
2022/02/13 22:55:42;;;;;;;27.80;11.68;;;;;;;3.07;75.20;100286.72;713337;1174;115693;-80
2022/02/13 23:26:05;;;;;;;26.60;12.00;;;;;;;2.99;74.79;100288.91;713390;1174;115006;-82
2022/02/13 23:41:07;;;;;;;19.73;10.00;;;;;;;3.09;74.80;100260.70;713249;1174;114080;-80
2022/02/13 23:56:09;;;;;;;24.53;11.37;;;;;;;3.02;75.17;100255.03;712913;1177;115566;-81
